Katerina L — 3FQL2 — position and weather

sailwx.info

Track history (hours):
 
Tides and Currents Weather Stations Pressure Air Temp Water Temp Dewpoint Dewpoint Depression Visibility Wind Speed Wind Dir Waves Ship Positions

Katerina L

Last reported at 2016-Jul-30 01:33 UTC. Time now 2016-Jul-30 01:55 UTC.
Position N 36°09' E 012°22'.

Length 91 m; draft 5.4 m.

Type: Tanker. MMSI: 356460000.

Date/timePositionNaut miles runAvg speedWind from/ knotsBaromVisibWave heightAir tempDewpointWater temp
2016-Jul-30 01:33N 36°09' E 012°22'7 7.0
2016-Jul-30 00:33N 36°09' E 012°30'7 7.4
2016-Jul-29 23:33N 36°10' E 012°40'8 7.7
2016-Jul-29 22:33N 36°11' E 012°49'8 7.8
2016-Jul-29 21:33N 36°12' E 012°59'8 7.7
2016-Jul-29 20:33N 36°13' E 013°08'8 7.6
2016-Jul-29 19:33N 36°13' E 013°18'7 7.5
2016-Jul-29 18:33N 36°14' E 013°27'8 7.5
2016-Jul-29 17:33N 36°15' E 013°36'8 7.7
2016-Jul-29 16:33N 36°15' E 013°46'8 7.7
2016-Jul-29 15:33N 36°16' E 013°55'8 7.5
2016-Jul-29 14:33N 36°16' E 014°04'7 7.5
2016-Jul-29 13:34N 36°17' E 014°14'7 7.4
2016-Jul-29 12:33N 36°17' E 014°23'8 7.6
2016-Jul-29 11:33N 36°17' E 014°32'8 7.9
2016-Jul-29 10:33N 36°17' E 014°42'8 7.9
2016-Jul-29 09:33N 36°17' E 014°52'8 7.7
2016-Jul-29 08:33N 36°17' E 015°02'8 7.6
2016-Jul-29 07:28N 36°18' E 015°12'  
2016-Jul-26 23:20N 36°52' E 023°29'15 7.5
2016-Jul-26 21:17N 37°07' E 023°34'7 6.9
2016-Jul-26 20:19N 37°13' E 023°36'5 6.9
2016-Jul-26 19:32N 37°18' E 023°37'7 7.2
2016-Jul-26 18:33N 37°25' E 023°39'8 7.7
2016-Jul-26 17:33N 37°33' E 023°41'8 7.6
2016-Jul-26 16:33N 37°40' E 023°42'7 7.4
2016-Jul-26 15:34N 37°47' E 023°38'8 7.8
2016-Jul-26 14:34N 37°55' E 023°36'6 6.2
2016-Jul-26 13:34N 38°00' E 023°33'2 2.2
2016-Jul-26 12:32N 38°02' E 023°36'0 0.0
2016-Jul-26 11:32N 38°02' E 023°36'0 0.0
2016-Jul-26 10:32N 38°02' E 023°36'0 0.0
2016-Jul-26 09:29N 38°02' E 023°36'0 0.0
2016-Jul-26 08:32N 38°02' E 023°36'0 0.0
2016-Jul-26 07:32N 38°02' E 023°36'0 0.0
2016-Jul-26 06:29N 38°02' E 023°36'0 0.0
2016-Jul-26 05:32N 38°02' E 023°36'0 0.0
2016-Jul-26 04:32N 38°02' E 023°36'0 0.0
2016-Jul-26 03:32N 38°02' E 023°36'0 0.0
2016-Jul-26 02:29N 38°02' E 023°36'0 0.0
2016-Jul-26 01:29N 38°02' E 023°36'0 0.0
2016-Jul-26 00:32N 38°02' E 023°36'0 0.0
2016-Jul-25 23:32N 38°02' E 023°36'0 0.0
2016-Jul-25 22:32N 38°02' E 023°36'0 0.0
2016-Jul-25 21:32N 38°02' E 023°36'0 0.0
2016-Jul-25 20:32N 38°02' E 023°36'0 0.0
2016-Jul-25 19:32N 38°02' E 023°36'0 0.0
2016-Jul-25 18:32N 38°02' E 023°36'0 0.0
2016-Jul-25 17:32N 38°02' E 023°36'0 0.0
2016-Jul-25 16:32N 38°02' E 023°36'0 0.0
2016-Jul-25 15:32N 38°02' E 023°36'0 0.0
2016-Jul-25 14:32N 38°02' E 023°36'0 0.0
2016-Jul-25 13:32N 38°02' E 023°36'0 0.0
2016-Jul-25 12:32N 38°02' E 023°36'0 0.0
2016-Jul-25 11:29N 38°02' E 023°36'0 0.0
2016-Jul-25 10:23N 38°02' E 023°36'0 0.0
2016-Jul-25 09:29N 38°02' E 023°36'3 2.8
2016-Jul-25 08:34N 38°01' E 023°32'0 0.3
2016-Jul-25 07:31N 38°01' E 023°32'0 0.0
2016-Jul-25 06:31N 38°01' E 023°32'0 0.0
2016-Jul-25 05:31N 38°01' E 023°32'0 0.0
2016-Jul-25 04:31N 38°01' E 023°32'0 0.0
2016-Jul-25 03:31N 38°01' E 023°32'0 0.0
2016-Jul-25 02:31N 38°01' E 023°32'0 0.0
2016-Jul-25 01:31N 38°01' E 023°32'0 0.0
2016-Jul-25 00:31N 38°01' E 023°32'0 0.0
2016-Jul-24 23:31N 38°01' E 023°32'0 0.0
2016-Jul-24 22:31N 38°01' E 023°32'0 0.0
2016-Jul-24 21:31N 38°01' E 023°32'0 0.0
2016-Jul-24 20:31N 38°01' E 023°32'0 0.0
2016-Jul-24 19:31N 38°01' E 023°32'0 0.0
2016-Jul-24 18:28N 38°01' E 023°32'0 0.0
2016-Jul-24 17:31N 38°01' E 023°32'0 0.0
2016-Jul-24 16:31N 38°01' E 023°32'0 0.0
2016-Jul-24 15:31N 38°01' E 023°32'0 0.0
2016-Jul-24 14:31N 38°01' E 023°32'0 0.0
2016-Jul-24 13:31N 38°01' E 023°32'0 0.0
2016-Jul-24 12:28N 38°01' E 023°32'0 0.0
2016-Jul-24 11:31N 38°01' E 023°32'0 0.0
2016-Jul-24 10:31N 38°01' E 023°32'0 0.0
2016-Jul-24 09:31N 38°01' E 023°32'0 0.0
2016-Jul-24 08:31N 38°01' E 023°32'0 0.0
2016-Jul-24 07:28N 38°01' E 023°32'0 0.0
2016-Jul-24 06:28N 38°01' E 023°32'0 0.0
2016-Jul-24 05:31N 38°01' E 023°32'0 0.1
2016-Jul-24 04:31N 38°01' E 023°32'0 0.0
2016-Jul-24 03:31N 38°01' E 023°32'0 0.1
2016-Jul-24 02:31N 38°01' E 023°32'0 0.0
2016-Jul-24 01:31N 38°01' E 023°32'0 0.0
2016-Jul-24 00:31N 38°01' E 023°32'0 0.0
2016-Jul-23 23:31N 38°01' E 023°32'0 0.0
2016-Jul-23 22:31N 38°01' E 023°32'0 0.0
2016-Jul-23 21:31N 38°01' E 023°32'0 0.0
2016-Jul-23 20:31N 38°01' E 023°32'0 0.0
2016-Jul-23 19:31N 38°01' E 023°32'0 0.0
2016-Jul-23 18:31N 38°01' E 023°32'0 0.0
2016-Jul-23 17:31N 38°01' E 023°32'0 0.0
2016-Jul-23 16:31N 38°01' E 023°32'0 0.0
2016-Jul-23 15:31N 38°01' E 023°32'0 0.1
2016-Jul-23 14:31N 38°01' E 023°32'0 0.0
2016-Jul-23 13:31N 38°01' E 023°32'0 0.0
2016-Jul-23 12:31N 38°01' E 023°32'0 0.0
2016-Jul-23 11:31N 38°01' E 023°32'0 0.0
2016-Jul-23 10:31N 38°01' E 023°32'0 0.0
2016-Jul-23 09:31N 38°01' E 023°32'0 0.0
2016-Jul-23 08:31N 38°01' E 023°32'2 1.6
2016-Jul-23 07:33N 37°60' E 023°33'6 5.7
2016-Jul-23 06:33N 37°55' E 023°36'12 6.1
2016-Jul-23 04:34N 37°44' E 023°43'7 7.2
2016-Jul-23 03:33N 37°39' E 023°49'7 7.3
2016-Jul-23 02:33N 37°36' E 023°58'7 7.3
2016-Jul-23 01:33N 37°33' E 024°06'8 7.7
2016-Jul-23 00:33N 37°30' E 024°15'2 0.9
2016-Jul-22 22:03N 37°29' E 024°18'16 5.7
2016-Jul-22 19:13N 37°27' E 024°38'6 7.3
2016-Jul-22 18:22N 37°23' E 024°44'6 7.5
2016-Jul-22 17:33N 37°20' E 024°51'14 7.1
2016-Jul-22 15:33N 37°18' E 025°08'7 7.2
2016-Jul-22 14:33N 37°17' E 025°17'7 7.1
2016-Jul-22 13:33N 37°16' E 025°26'13 6.7
2016-Jul-22 11:33N 37°14' E 025°42'  
2016-Jul-20 04:28N 34°33' E 032°40'7 7.3
2016-Jul-20 03:33N 34°31' E 032°48'8 7.5
2016-Jul-20 02:33N 34°28' E 032°57'7 7.3
2016-Jul-20 01:33N 34°26' E 033°05'  
Track history (hours):
 
Tides and Currents Weather Stations Pressure Air Temp Water Temp Dewpoint Dewpoint Depression Visibility Wind Speed Wind Dir Waves Ship Positions

Katerina L

Last reported at 2016-Jul-30 01:33 UTC. Time now 2016-Jul-30 01:55 UTC.
Position N 36°09' E 012°22'.

Length 91 m; draft 5.4 m.

Type: Tanker. MMSI: 356460000.

Date/timePositionNaut miles runAvg speedWind from/ knotsBaromVisibWave heightAir tempDewpointWater temp
2016-Jul-30 01:33N 36°09' E 012°22'7 7.0
2016-Jul-30 00:33N 36°09' E 012°30'7 7.4
2016-Jul-29 23:33N 36°10' E 012°40'8 7.7
2016-Jul-29 22:33N 36°11' E 012°49'8 7.8
2016-Jul-29 21:33N 36°12' E 012°59'8 7.7
2016-Jul-29 20:33N 36°13' E 013°08'8 7.6
2016-Jul-29 19:33N 36°13' E 013°18'7 7.5
2016-Jul-29 18:33N 36°14' E 013°27'8 7.5
2016-Jul-29 17:33N 36°15' E 013°36'8 7.7
2016-Jul-29 16:33N 36°15' E 013°46'8 7.7
2016-Jul-29 15:33N 36°16' E 013°55'8 7.5
2016-Jul-29 14:33N 36°16' E 014°04'7 7.5
2016-Jul-29 13:34N 36°17' E 014°14'7 7.4
2016-Jul-29 12:33N 36°17' E 014°23'8 7.6
2016-Jul-29 11:33N 36°17' E 014°32'8 7.9
2016-Jul-29 10:33N 36°17' E 014°42'8 7.9
2016-Jul-29 09:33N 36°17' E 014°52'8 7.7
2016-Jul-29 08:33N 36°17' E 015°02'8 7.6
2016-Jul-29 07:28N 36°18' E 015°12'  
2016-Jul-26 23:20N 36°52' E 023°29'15 7.5
2016-Jul-26 21:17N 37°07' E 023°34'7 6.9
2016-Jul-26 20:19N 37°13' E 023°36'5 6.9
2016-Jul-26 19:32N 37°18' E 023°37'7 7.2
2016-Jul-26 18:33N 37°25' E 023°39'8 7.7
2016-Jul-26 17:33N 37°33' E 023°41'8 7.6
2016-Jul-26 16:33N 37°40' E 023°42'7 7.4
2016-Jul-26 15:34N 37°47' E 023°38'8 7.8
2016-Jul-26 14:34N 37°55' E 023°36'6 6.2
2016-Jul-26 13:34N 38°00' E 023°33'2 2.2
2016-Jul-26 12:32N 38°02' E 023°36'0 0.0
2016-Jul-26 11:32N 38°02' E 023°36'0 0.0
2016-Jul-26 10:32N 38°02' E 023°36'0 0.0
2016-Jul-26 09:29N 38°02' E 023°36'0 0.0
2016-Jul-26 08:32N 38°02' E 023°36'0 0.0
2016-Jul-26 07:32N 38°02' E 023°36'0 0.0
2016-Jul-26 06:29N 38°02' E 023°36'0 0.0
2016-Jul-26 05:32N 38°02' E 023°36'0 0.0
2016-Jul-26 04:32N 38°02' E 023°36'0 0.0
2016-Jul-26 03:32N 38°02' E 023°36'0 0.0
2016-Jul-26 02:29N 38°02' E 023°36'0 0.0
2016-Jul-26 01:29N 38°02' E 023°36'0 0.0
2016-Jul-26 00:32N 38°02' E 023°36'0 0.0
2016-Jul-25 23:32N 38°02' E 023°36'0 0.0
2016-Jul-25 22:32N 38°02' E 023°36'0 0.0
2016-Jul-25 21:32N 38°02' E 023°36'0 0.0
2016-Jul-25 20:32N 38°02' E 023°36'0 0.0
2016-Jul-25 19:32N 38°02' E 023°36'0 0.0
2016-Jul-25 18:32N 38°02' E 023°36'0 0.0
2016-Jul-25 17:32N 38°02' E 023°36'0 0.0
2016-Jul-25 16:32N 38°02' E 023°36'0 0.0
2016-Jul-25 15:32N 38°02' E 023°36'0 0.0
2016-Jul-25 14:32N 38°02' E 023°36'0 0.0
2016-Jul-25 13:32N 38°02' E 023°36'0 0.0
2016-Jul-25 12:32N 38°02' E 023°36'0 0.0
2016-Jul-25 11:29N 38°02' E 023°36'0 0.0
2016-Jul-25 10:23N 38°02' E 023°36'0 0.0
2016-Jul-25 09:29N 38°02' E 023°36'3 2.8
2016-Jul-25 08:34N 38°01' E 023°32'0 0.3
2016-Jul-25 07:31N 38°01' E 023°32'0 0.0
2016-Jul-25 06:31N 38°01' E 023°32'0 0.0
2016-Jul-25 05:31N 38°01' E 023°32'0 0.0
2016-Jul-25 04:31N 38°01' E 023°32'0 0.0
2016-Jul-25 03:31N 38°01' E 023°32'0 0.0
2016-Jul-25 02:31N 38°01' E 023°32'0 0.0
2016-Jul-25 01:31N 38°01' E 023°32'0 0.0
2016-Jul-25 00:31N 38°01' E 023°32'0 0.0
2016-Jul-24 23:31N 38°01' E 023°32'0 0.0
2016-Jul-24 22:31N 38°01' E 023°32'0 0.0
2016-Jul-24 21:31N 38°01' E 023°32'0 0.0
2016-Jul-24 20:31N 38°01' E 023°32'0 0.0
2016-Jul-24 19:31N 38°01' E 023°32'0 0.0
2016-Jul-24 18:28N 38°01' E 023°32'0 0.0
2016-Jul-24 17:31N 38°01' E 023°32'0 0.0
2016-Jul-24 16:31N 38°01' E 023°32'0 0.0
2016-Jul-24 15:31N 38°01' E 023°32'0 0.0
2016-Jul-24 14:31N 38°01' E 023°32'0 0.0
2016-Jul-24 13:31N 38°01' E 023°32'0 0.0
2016-Jul-24 12:28N 38°01' E 023°32'0 0.0
2016-Jul-24 11:31N 38°01' E 023°32'0 0.0
2016-Jul-24 10:31N 38°01' E 023°32'0 0.0
2016-Jul-24 09:31N 38°01' E 023°32'0 0.0
2016-Jul-24 08:31N 38°01' E 023°32'0 0.0
2016-Jul-24 07:28N 38°01' E 023°32'0 0.0
2016-Jul-24 06:28N 38°01' E 023°32'0 0.0
2016-Jul-24 05:31N 38°01' E 023°32'0 0.1
2016-Jul-24 04:31N 38°01' E 023°32'0 0.0
2016-Jul-24 03:31N 38°01' E 023°32'0 0.1
2016-Jul-24 02:31N 38°01' E 023°32'0 0.0
2016-Jul-24 01:31N 38°01' E 023°32'0 0.0
2016-Jul-24 00:31N 38°01' E 023°32'0 0.0
2016-Jul-23 23:31N 38°01' E 023°32'0 0.0
2016-Jul-23 22:31N 38°01' E 023°32'0 0.0
2016-Jul-23 21:31N 38°01' E 023°32'0 0.0
2016-Jul-23 20:31N 38°01' E 023°32'0 0.0
2016-Jul-23 19:31N 38°01' E 023°32'0 0.0
2016-Jul-23 18:31N 38°01' E 023°32'0 0.0
2016-Jul-23 17:31N 38°01' E 023°32'0 0.0
2016-Jul-23 16:31N 38°01' E 023°32'0 0.0
2016-Jul-23 15:31N 38°01' E 023°32'0 0.1
2016-Jul-23 14:31N 38°01' E 023°32'0 0.0
2016-Jul-23 13:31N 38°01' E 023°32'0 0.0
2016-Jul-23 12:31N 38°01' E 023°32'0 0.0
2016-Jul-23 11:31N 38°01' E 023°32'0 0.0
2016-Jul-23 10:31N 38°01' E 023°32'0 0.0
2016-Jul-23 09:31N 38°01' E 023°32'0 0.0
2016-Jul-23 08:31N 38°01' E 023°32'2 1.6
2016-Jul-23 07:33N 37°60' E 023°33'6 5.7
2016-Jul-23 06:33N 37°55' E 023°36'12 6.1
2016-Jul-23 04:34N 37°44' E 023°43'7 7.2
2016-Jul-23 03:33N 37°39' E 023°49'7 7.3
2016-Jul-23 02:33N 37°36' E 023°58'7 7.3
2016-Jul-23 01:33N 37°33' E 024°06'8 7.7
2016-Jul-23 00:33N 37°30' E 024°15'2 0.9
2016-Jul-22 22:03N 37°29' E 024°18'16 5.7
2016-Jul-22 19:13N 37°27' E 024°38'6 7.3
2016-Jul-22 18:22N 37°23' E 024°44'6 7.5
2016-Jul-22 17:33N 37°20' E 024°51'14 7.1
2016-Jul-22 15:33N 37°18' E 025°08'7 7.2
2016-Jul-22 14:33N 37°17' E 025°17'7 7.1
2016-Jul-22 13:33N 37°16' E 025°26'13 6.7
2016-Jul-22 11:33N 37°14' E 025°42'  
2016-Jul-20 04:28N 34°33' E 032°40'7 7.3
2016-Jul-20 03:33N 34°31' E 032°48'8 7.5
2016-Jul-20 02:33N 34°28' E 032°57'7 7.3
2016-Jul-20 01:33N 34°26' E 033°05'  

Dump ship's entire track history